Time;durP1;ratioP1;P1;durP2;ratioP2;P2;SDS_P1;SDS_P2;PMS_P1;PMS_P2;Temp;Humidity;BMP_temperature;BMP_pressure;BME280_temperature;BME280_humidity;BME280_pressure;Samples;Min_cycle;Max_cycle;Signal;HPM_P1;HPM_P2
2022/02/06 00:03:07;;;;;;;10.50;5.80;;;;;;;0.63;78.35;99258.23;431750;1274;141536;-59
2022/02/06 00:13:14;;;;;;;10.40;6.30;;;;;;;0.75;78.09;99239.81;430477;1274;142238;-67
2022/02/06 00:23:22;;;;;;;11.40;5.50;;;;;;;0.74;77.68;99229.84;430634;1274;141650;-67
2022/02/06 00:33:40;;;;;;;8.40;4.90;;;;;;;0.71;77.60;99222.20;430235;1274;141688;-67
2022/02/06 00:43:45;;;;;;;;;;;;;;;0.66;77.36;99205.44;431491;1274;141564;-65
2022/02/06 00:53:51;;;;;;;8.10;5.00;;;;;;;0.67;77.30;99200.07;430416;1274;126945;-66
2022/02/06 01:03:57;;;;;;;7.50;3.90;;;;;;;0.69;77.17;99190.88;430975;1270;140497;-65
2022/02/06 01:14:11;;;;;;;7.00;4.20;;;;;;;0.72;76.95;99177.88;432628;1270;140835;-65
2022/02/06 01:24:20;;;;;;;6.70;3.60;;;;;;;0.72;76.66;99164.45;430424;1269;142374;-66
2022/02/06 01:34:33;;;;;;;8.70;4.20;;;;;;;0.66;76.77;99144.96;430665;1270;141284;-65
2022/02/06 01:44:50;;;;;;;13.10;4.10;;;;;;;0.59;76.55;99122.63;432377;1270;140556;-66
2022/02/06 02:05:57;;;;;;;4.30;3.30;;;;;;;0.48;76.78;99098.33;431380;1270;141694;-66
2022/02/06 02:26:51;;;;;;;5.40;4.20;;;;;;;0.50;76.76;99064.32;433256;1270;141269;-66
2022/02/06 02:47:21;;;;;;;3.80;3.10;;;;;;;0.59;76.95;99034.42;430941;1268;141505;-66
2022/02/06 02:57:32;;;;;;;8.00;3.60;;;;;;;0.57;76.86;99015.55;431372;1270;140925;-66
2022/02/06 03:07:38;;;;;;;4.80;2.90;;;;;;;0.52;77.02;98995.36;433893;1270;141908;-66
2022/02/06 03:17:56;;;;;;;5.30;2.70;;;;;;;0.49;77.05;98972.70;431208;1270;141274;-66
2022/02/06 03:28:02;;;;;;;5.30;3.40;;;;;;;0.41;77.05;98942.85;433102;1270;141552;-66
2022/02/06 03:38:09;;;;;;;6.70;3.90;;;;;;;0.28;77.14;98928.45;433056;1269;140616;-65
2022/02/06 03:48:20;;;;;;;4.30;3.10;;;;;;;0.10;77.12;98926.44;432146;1268;141394;-67
2022/02/06 03:58:27;;;;;;;5.60;3.60;;;;;;;-0.09;77.35;98917.21;432780;1270;141447;-67
2022/02/06 04:08:36;;;;;;;5.00;3.50;;;;;;;-0.25;77.47;98906.00;432199;1270;141574;-65
2022/02/06 04:18:50;;;;;;;3.60;2.80;;;;;;;-0.24;77.80;98889.99;433458;1268;141226;-65
2022/02/06 04:28:56;;;;;;;4.20;2.90;;;;;;;-0.18;77.87;98869.52;434538;1270;141440;-65
2022/02/06 04:39:13;;;;;;;5.50;3.30;;;;;;;-0.13;77.82;98849.56;431295;1270;141588;-66
2022/02/06 05:21:16;;;;;;;5.00;3.10;;;;;;;0.17;77.43;98768.91;432886;1269;141296;-66
2022/02/06 05:31:34;;;;;;;5.90;2.90;;;;;;;0.37;77.29;98753.76;431916;1270;140776;-64
2022/02/06 05:41:40;;;;;;;4.50;2.40;;;;;;;0.54;77.53;98735.73;432307;1270;142037;-66
2022/02/06 05:51:47;;;;;;;4.70;2.60;;;;;;;0.67;77.24;98720.63;431692;1269;141359;-66
2022/02/06 06:01:52;;;;;;;4.70;2.40;;;;;;;0.78;77.17;98703.85;431608;1270;141016;-67
2022/02/06 06:11:58;;;;;;;2.40;2.20;;;;;;;0.89;77.09;98703.27;432528;1270;141558;-65
2022/02/06 06:22:08;;;;;;;3.70;3.20;;;;;;;0.98;76.85;98698.25;431990;1270;140879;-66
2022/02/06 06:32:14;;;;;;;2.90;2.30;;;;;;;1.05;77.04;98686.29;432236;1270;141799;-67
2022/02/06 06:42:20;;;;;;;6.00;3.10;;;;;;;1.05;77.39;98672.85;432494;1268;141599;-67
2022/02/06 06:52:28;;;;;;;7.60;3.30;;;;;;;1.04;77.80;98654.94;431513;1270;140660;-66
2022/02/06 07:02:34;;;;;;;4.50;3.80;;;;;;;1.10;78.00;98650.59;432000;1270;143073;-66
2022/02/06 07:12:40;;;;;;;7.10;4.30;;;;;;;1.16;78.08;98649.80;432239;1270;279036;-66
2022/02/06 07:22:46;;;;;;;4.90;2.80;;;;;;;1.25;78.36;98639.44;433156;1270;141457;-65
2022/02/06 07:32:51;;;;;;;2.60;2.30;;;;;;;1.29;78.55;98628.27;433013;1270;142251;-66
2022/02/06 07:42:57;;;;;;;4.80;2.60;;;;;;;1.28;79.11;98619.67;432006;1270;142299;-66
2022/02/06 07:53:03;;;;;;;6.50;3.50;;;;;;;1.23;79.85;98612.63;432150;1269;142255;-66
2022/02/06 08:03:09;;;;;;;6.60;4.30;;;;;;;1.13;80.37;98594.78;431562;1270;140419;-66
2022/02/06 08:13:24;;;;;;;5.40;4.10;;;;;;;0.98;80.95;98581.27;432996;1269;139981;-67
2022/02/06 08:23:30;;;;;;;4.60;4.00;;;;;;;0.90;81.67;98562.94;436734;1269;140053;-66
2022/02/06 08:33:36;;;;;;;6.90;5.40;;;;;;;0.95;82.18;98546.20;437098;1269;141863;-66
2022/02/06 08:43:42;;;;;;;5.10;4.60;;;;;;;1.07;82.39;98535.71;434576;1269;141103;-66
2022/02/06 08:53:48;;;;;;;4.70;3.40;;;;;;;1.22;82.36;98519.73;437371;1269;141693;-65
2022/02/06 09:03:55;;;;;;;6.20;4.30;;;;;;;1.17;82.54;98511.35;433193;1268;209448;-65
2022/02/06 09:14:01;;;;;;;6.80;4.60;;;;;;;1.08;83.00;98494.33;433956;1268;141384;-65
2022/02/06 09:24:08;;;;;;;8.10;4.30;;;;;;;1.15;83.44;98493.66;434798;1270;141448;-66
2022/02/06 09:44:21;;;;;;;7.40;4.70;;;;;;;1.30;83.81;98484.08;446897;1270;141363;-67
2022/02/06 09:54:30;;;;;;;6.80;4.00;;;;;;;1.41;83.95;98470.83;432058;1270;140873;-67
2022/02/06 10:04:39;;;;;;;9.80;6.40;;;;;;;1.49;84.25;98459.80;434169;1269;142433;-65
2022/02/06 10:14:46;;;;;;;8.00;5.20;;;;;;;1.57;84.34;98442.69;430815;1271;140453;-66
2022/02/06 10:25:04;;;;;;;4.40;3.40;;;;;;;1.61;84.38;98426.84;432311;1270;140894;-66
2022/02/06 10:35:14;;;;;;;4.70;4.00;;;;;;;1.75;84.64;98399.94;432463;1270;140988;-67
2022/02/06 10:45:22;;;;;;;9.20;4.30;;;;;;;1.90;84.55;98378.36;433108;1270;143541;-71
2022/02/06 10:55:28;;;;;;;6.60;4.10;;;;;;;2.16;84.53;98351.58;434702;1268;140862;-67
2022/02/06 11:05:49;;;;;;;4.50;3.90;;;;;;;2.43;84.30;98323.65;430986;1268;141125;-68
2022/02/06 11:15:58;;;;;;;4.80;3.80;;;;;;;2.76;83.86;98304.66;431601;1268;141273;-68
2022/02/06 11:26:04;;;;;;;5.50;3.70;;;;;;;2.66;83.67;98294.14;432175;1270;141145;-67
2022/02/06 11:36:16;;;;;;;6.80;3.40;;;;;;;2.56;83.75;98286.19;431016;1268;141538;-67
2022/02/06 11:46:37;;;;;;;5.50;3.30;;;;;;;2.52;83.99;98275.30;436098;1270;141363;-64
2022/02/06 11:56:43;;;;;;;4.90;3.30;;;;;;;2.55;83.97;98261.87;445530;1270;141653;-64
2022/02/06 12:06:59;;;;;;;4.60;3.30;;;;;;;2.67;83.85;98248.51;430740;1270;141333;-61
2022/02/06 12:17:17;;;;;;;5.20;2.80;;;;;;;2.50;84.03;98245.00;434783;1269;141437;-60
2022/02/06 12:27:26;;;;;;;5.70;4.30;;;;;;;2.42;84.28;98230.27;432577;1270;198032;-58
2022/02/06 12:37:34;;;;;;;4.20;2.70;;;;;;;2.46;84.47;98205.35;433792;1270;142503;-57
2022/02/06 12:47:44;;;;;;;5.90;3.80;;;;;;;2.50;84.39;98190.80;434339;1269;144568;-58
2022/02/06 12:57:52;;;;;;;7.10;5.30;;;;;;;2.51;84.46;98175.35;441175;1270;143068;-58
2022/02/06 13:07:58;;;;;;;4.80;4.10;;;;;;;2.50;84.59;98166.80;437298;1268;141965;-58
2022/02/06 13:28:37;;;;;;;8.00;4.00;;;;;;;2.47;84.76;98138.41;430587;1270;142435;-59
2022/02/06 13:38:50;;;;;;;4.00;3.60;;;;;;;2.49;84.62;98114.84;432438;1269;141247;-58
2022/02/06 13:48:56;;;;;;;6.70;4.80;;;;;;;2.58;84.87;98092.94;431441;1270;142339;-59
2022/02/06 13:59:05;;;;;;;10.00;5.40;;;;;;;2.66;84.70;98077.13;430831;1269;141826;-57
2022/02/06 14:09:20;;;;;;;8.50;5.20;;;;;;;2.67;84.60;98073.97;430770;1271;145823;-59
2022/02/06 14:19:39;;;;;;;10.90;5.80;;;;;;;2.68;84.52;98065.80;432071;1268;141770;-58
2022/02/06 14:29:59;;;;;;;5.30;4.50;;;;;;;2.65;84.53;98049.36;431756;1271;143186;-58
2022/02/06 14:40:13;;;;;;;6.70;4.20;;;;;;;2.64;84.27;98033.83;431643;1271;141985;-58
2022/02/06 14:50:22;;;;;;;7.50;5.10;;;;;;;2.61;84.25;98010.48;432053;1271;145145;-58
2022/02/06 15:00:28;;;;;;;7.10;4.20;;;;;;;2.62;83.95;97982.15;432801;1270;141243;-58
2022/02/06 15:10:35;;;;;;;6.90;4.30;;;;;;;2.61;83.95;97958.02;432436;1271;143500;-59
2022/02/06 15:20:41;;;;;;;5.30;4.10;;;;;;;2.54;84.02;97924.54;433841;1270;140903;-56
2022/02/06 15:30:47;;;;;;;5.00;3.80;;;;;;;2.49;83.87;97891.31;432274;1270;140949;-60
2022/02/06 15:40:57;;;;;;;8.50;5.00;;;;;;;2.45;83.94;97878.63;432441;1271;147122;-59
2022/02/06 15:51:03;;;;;;;5.80;4.30;;;;;;;2.50;84.02;97869.17;431288;1270;142011;-59
2022/02/06 16:01:09;;;;;;;5.10;3.80;;;;;;;2.57;83.64;97850.77;433649;1271;141561;-58
2022/02/06 16:11:15;;;;;;;5.40;3.80;;;;;;;2.68;83.40;97840.14;434081;1270;140979;-58
2022/02/06 16:21:21;;;;;;;6.80;3.60;;;;;;;2.75;82.85;97807.02;433174;1270;144236;-59
2022/02/06 16:31:27;;;;;;;5.40;3.90;;;;;;;2.82;82.67;97772.59;433002;1270;143923;-59
2022/02/06 16:41:33;;;;;;;6.10;4.10;;;;;;;2.89;82.36;97738.31;435412;1270;142394;-59
2022/02/06 16:51:39;;;;;;;4.70;2.80;;;;;;;2.96;82.39;97729.70;436389;1269;141319;-57
2022/02/06 17:01:45;;;;;;;6.30;3.70;;;;;;;3.02;82.09;97727.98;432665;1271;142938;-58
2022/02/06 17:11:52;;;;;;;5.90;3.80;;;;;;;3.02;81.89;97708.61;432444;1271;141114;-60
2022/02/06 17:21:58;;;;;;;5.70;3.60;;;;;;;2.98;82.13;97686.19;434144;1270;141878;-59
2022/02/06 17:32:05;;;;;;;8.00;4.20;;;;;;;2.96;82.07;97671.31;433729;1270;140640;-58
2022/02/06 17:42:12;;;;;;;6.90;3.90;;;;;;;2.93;82.07;97651.27;432222;1271;161118;-59
2022/02/06 17:52:17;;;;;;;10.40;5.40;;;;;;;2.88;82.34;97620.80;431679;1270;141767;-58
2022/02/06 18:02:24;;;;;;;6.40;3.90;;;;;;;2.83;82.49;97608.36;431925;1270;140466;-63
2022/02/06 18:12:29;;;;;;;6.80;4.00;;;;;;;2.82;82.72;97570.59;434496;1270;144326;-67
2022/02/06 18:22:36;;;;;;;8.50;4.40;;;;;;;2.85;82.39;97543.27;431678;1271;140821;-61
2022/02/06 18:32:42;;;;;;;8.50;4.80;;;;;;;2.89;82.47;97532.05;430890;1271;141194;-62
2022/02/06 18:42:51;;;;;;;15.40;5.50;;;;;;;2.93;82.36;97511.41;433549;1269;143175;-64
2022/02/06 18:52:58;;;;;;;13.40;6.10;;;;;;;2.94;82.42;97499.09;436584;1270;141592;-61
2022/02/06 19:03:05;;;;;;;5.50;3.30;;;;;;;2.90;82.75;97474.28;442079;1269;143244;-70
2022/02/06 19:13:11;;;;;;;6.60;3.50;;;;;;;2.87;83.00;97444.61;433788;1270;196104;-57
2022/02/06 19:23:17;;;;;;;6.30;3.30;;;;;;;2.93;83.70;97426.74;432558;1271;141633;-57
2022/02/06 19:33:23;;;;;;;6.50;3.50;;;;;;;3.00;84.05;97397.27;430630;1271;140612;-57
2022/02/06 19:43:32;;;;;;;5.30;2.70;;;;;;;3.01;84.35;97374.02;432052;1271;142320;-56
2022/02/06 19:53:39;;;;;;;5.10;2.60;;;;;;;2.92;84.60;97354.05;430817;1271;141615;-55
2022/02/06 20:03:45;;;;;;;3.20;2.50;;;;;;;2.87;84.83;97322.92;430643;1269;143016;-57
2022/02/06 20:13:51;;;;;;;4.30;2.40;;;;;;;2.83;85.21;97302.16;431211;1269;142974;-58
2022/02/06 20:23:58;;;;;;;2.90;2.60;;;;;;;2.84;85.21;97282.00;430466;1271;141545;-56
2022/02/06 20:34:06;;;;;;;3.50;2.60;;;;;;;2.84;85.63;97260.77;431953;1269;142211;-54
2022/02/06 20:44:12;;;;;;;5.50;2.50;;;;;;;2.84;85.64;97233.63;430714;1270;141447;-56
2022/02/06 20:54:19;;;;;;;5.40;2.90;;;;;;;2.83;85.87;97213.82;442078;1268;141391;-57
2022/02/06 21:04:25;;;;;;;4.90;3.40;;;;;;;2.81;85.96;97206.38;434635;1268;145276;-56
2022/02/06 21:14:32;;;;;;;4.50;3.30;;;;;;;2.88;86.10;97196.00;437431;1269;141134;-57
2022/02/06 21:24:38;;;;;;;4.40;2.90;;;;;;;2.96;86.26;97180.26;436755;1268;145359;-56
2022/02/06 21:34:44;;;;;;;3.80;2.40;;;;;;;2.97;86.14;97172.57;440257;1269;141326;-57
2022/02/06 21:44:50;;;;;;;1.40;1.30;;;;;;;2.97;86.53;97160.71;434495;1268;141990;-57
2022/02/06 21:54:57;;;;;;;5.50;2.30;;;;;;;3.00;86.58;97150.39;431601;1270;141184;-57
2022/02/06 22:05:03;;;;;;;3.10;2.00;;;;;;;2.98;86.58;97144.83;445048;1268;141698;-57
2022/02/06 22:28:50;;;;;;;1.40;1.10;;;;;;;2.92;87.03;97134.04;431224;1269;141133;-59
2022/02/06 22:36:03;;;;;;;2.30;2.10;;;;;;;2.93;87.21;97131.02;430355;1269;141114;-56
2022/02/06 22:46:09;;;;;;;2.80;2.30;;;;;;;2.94;87.25;97131.65;433172;1270;141153;-58
2022/02/06 22:56:15;;;;;;;1.90;1.70;;;;;;;2.98;87.32;97135.21;438291;1268;141970;-63
2022/02/06 23:06:23;;;;;;;1.50;1.20;;;;;;;2.93;87.34;97145.38;434384;1269;141353;-62
2022/02/06 23:16:27;;;;;;;;;;;;;;;2.89;87.55;97145.34;431814;1269;141695;-70
2022/02/06 23:26:33;;;;;;;1.40;1.10;;;;;;;2.86;87.79;97148.61;431401;1269;128543;-65
2022/02/06 23:36:39;;;;;;;1.50;1.20;;;;;;;2.84;87.67;97167.23;430694;1268;141950;-68
2022/02/06 23:46:50;;;;;;;0.90;0.90;;;;;;;2.85;87.35;97195.20;431121;1269;142432;-69
2022/02/06 23:57:06;;;;;;;0.90;0.70;;;;;;;2.81;86.38;97225.21;430108;1270;140700;-68
